createdAt,value
2022-10-05T00:00:51.910Z,0
2022-10-05T00:01:52.213Z,0
2022-10-05T00:02:53.288Z,0
2022-10-05T00:03:54.244Z,0
2022-10-05T00:04:54.519Z,0
2022-10-05T00:05:54.544Z,0
2022-10-05T00:06:55.896Z,0
2022-10-05T00:07:55.797Z,0
2022-10-05T00:08:56.698Z,0
2022-10-05T00:09:56.927Z,0
2022-10-05T00:10:57.864Z,0
2022-10-05T00:11:57.768Z,0
2022-10-05T00:12:58.677Z,0
2022-10-05T00:13:59.324Z,0
2022-10-05T00:15:00.509Z,0
2022-10-05T00:16:01.140Z,0
2022-10-05T00:17:02.709Z,0
2022-10-05T00:18:02.975Z,0
2022-10-05T00:19:03.588Z,0
2022-10-05T00:20:04.808Z,0
2022-10-05T00:21:05.439Z,0
2022-10-05T00:22:06.052Z,0
2022-10-05T00:23:06.984Z,0
2022-10-05T00:24:07.608Z,0
2022-10-05T00:25:07.945Z,0
2022-10-05T00:26:09.020Z,0
2022-10-05T00:27:09.626Z,0
2022-10-05T00:28:10.386Z,0
2022-10-05T00:29:10.800Z,0
2022-10-05T00:30:11.712Z,0
2022-10-05T00:31:12.964Z,0
2022-10-05T00:32:13.467Z,0
2022-10-05T00:33:13.098Z,0
2022-10-05T00:34:14.027Z,0
2022-10-05T00:35:14.634Z,0
2022-10-05T00:36:15.328Z,0
2022-10-05T00:37:15.544Z,0
2022-10-05T00:38:16.465Z,0
2022-10-05T00:39:17.357Z,0
2022-10-05T00:40:18.550Z,0
2022-10-05T00:41:18.511Z,0
2022-10-05T00:42:19.129Z,0
2022-10-05T00:43:20.053Z,0
2022-10-05T00:44:20.694Z,0
2022-10-05T00:45:21.289Z,0
2022-10-05T00:46:21.901Z,0
2022-10-05T00:47:22.137Z,0
2022-10-05T00:48:22.058Z,0
2022-10-05T00:49:22.690Z,0
2022-10-05T00:50:23.583Z,0
2022-10-05T00:51:24.777Z,0
2022-10-05T00:52:24.687Z,0
2022-10-05T00:53:25.619Z,0
2022-10-05T00:54:29.467Z,0
2022-10-05T00:55:26.366Z,0
2022-10-05T00:56:27.068Z,0
2022-10-05T00:57:27.996Z,0
2022-10-05T00:58:28.606Z,0
2022-10-05T00:59:29.541Z,0
2022-10-05T01:00:29.882Z,0
2022-10-05T01:01:31.103Z,0
2022-10-05T01:02:35.939Z,0
2022-10-05T01:03:33.117Z,0
2022-10-05T01:04:33.012Z,0
2022-10-05T01:05:33.626Z,0
2022-10-05T01:06:34.339Z,0
2022-10-05T01:07:35.258Z,0
2022-10-05T01:08:36.181Z,0
2022-10-05T01:09:37.090Z,0
2022-10-05T01:10:38.002Z,0
2022-10-05T01:11:37.931Z,0
2022-10-05T01:12:37.834Z,0
2022-10-05T01:13:38.727Z,0
2022-10-05T01:14:39.643Z,0
2022-10-05T01:15:39.261Z,0
2022-10-05T01:16:40.927Z,0
2022-10-05T01:17:41.390Z,0
2022-10-05T01:18:41.010Z,0
2022-10-05T01:19:42.498Z,0
2022-10-05T01:20:42.127Z,0
2022-10-05T01:21:43.052Z,0
2022-10-05T01:22:43.645Z,0
2022-10-05T01:23:44.283Z,0
2022-10-05T01:24:45.177Z,0
2022-10-05T01:25:46.099Z,0
2022-10-05T01:26:47.810Z,0
2022-10-05T01:27:47.622Z,0
2022-10-05T01:28:47.891Z,0
2022-10-05T01:29:48.375Z,0
2022-10-05T01:30:48.882Z,0
2022-10-05T01:31:49.331Z,0
2022-10-05T01:32:49.103Z,0
2022-10-05T01:33:50.291Z,0
2022-10-05T01:34:51.209Z,0
2022-10-05T01:35:50.821Z,0
2022-10-05T01:36:52.967Z,0
2022-10-05T01:37:52.899Z,0
2022-10-05T01:38:52.818Z,0
2022-10-05T01:39:53.710Z,0
2022-10-05T01:40:54.630Z,0
2022-10-05T01:41:54.866Z,0
2022-10-05T01:42:54.492Z,0
2022-10-05T01:43:55.384Z,0
2022-10-05T01:44:56.023Z,0
2022-10-05T01:45:57.010Z,0
2022-10-05T01:46:57.592Z,0
2022-10-05T01:47:57.950Z,0
2022-10-05T01:48:57.861Z,0
2022-10-05T01:49:57.898Z,0
2022-10-05T01:50:59.388Z,0
2022-10-05T01:52:00.023Z,0
2022-10-05T01:53:00.660Z,0
2022-10-05T01:54:01.299Z,0
2022-10-05T01:55:02.508Z,0
2022-10-05T01:56:02.423Z,0
2022-10-05T01:57:03.807Z,0
2022-10-05T01:58:04.419Z,0
2022-10-05T01:59:05.014Z,0
2022-10-05T02:00:05.948Z,0
2022-10-05T02:01:07.189Z,0
2022-10-05T02:02:08.140Z,0
2022-10-05T02:03:08.173Z,0
2022-10-05T02:04:08.384Z,0
2022-10-05T02:05:13.522Z,0
2022-10-05T02:06:09.730Z,0
2022-10-05T02:07:10.353Z,0
2022-10-05T02:08:11.538Z,0
2022-10-05T02:09:12.436Z,0
2022-10-05T02:10:12.636Z,0
2022-10-05T02:11:13.546Z,0
2022-10-05T02:12:14.176Z,0
2022-10-05T02:13:13.787Z,0
2022-10-05T02:14:14.106Z,0
2022-10-05T02:15:14.999Z,0
2022-10-05T02:16:16.246Z,0
2022-10-05T02:17:16.071Z,0
2022-10-05T02:18:17.286Z,0
2022-10-05T02:19:17.771Z,0
2022-10-05T02:20:17.963Z,0
2022-10-05T02:21:18.171Z,0
2022-10-05T02:22:19.109Z,0
2022-10-05T02:23:19.440Z,0
2022-10-05T02:24:20.065Z,0
2022-10-05T02:25:21.264Z,0
2022-10-05T02:26:21.583Z,0
2022-10-05T02:27:22.603Z,0
2022-10-05T02:28:23.624Z,0
2022-10-05T02:29:23.844Z,0
2022-10-05T02:30:27.828Z,0
2022-10-05T02:31:25.978Z,0
2022-10-05T02:32:26.270Z,0
2022-10-05T02:33:26.199Z,0
2022-10-05T02:34:26.393Z,0
2022-10-05T02:35:27.011Z,0
2022-10-05T02:36:28.520Z,0
2022-10-05T02:37:28.182Z,0
2022-10-05T02:38:29.094Z,0
2022-10-05T02:39:30.135Z,0
2022-10-05T02:40:31.062Z,0
2022-10-05T02:41:31.677Z,0
2022-10-05T02:42:32.230Z,0
2022-10-05T02:43:31.869Z,0
2022-10-05T02:44:32.510Z,0
2022-10-05T02:45:33.444Z,0
2022-10-05T02:46:34.779Z,0
2022-10-05T02:47:34.809Z,0
2022-10-05T02:48:36.021Z,0
2022-10-05T02:49:35.931Z,0
2022-10-05T02:50:36.821Z,0
2022-10-05T02:51:37.460Z,0
2022-10-05T02:52:37.648Z,0
2022-10-05T02:53:38.581Z,0
2022-10-05T02:54:39.835Z,0
2022-10-05T02:55:39.461Z,0
2022-10-05T02:56:40.653Z,0
2022-10-05T02:57:41.320Z,0
2022-10-05T02:58:40.926Z,0
2022-10-05T02:59:42.509Z,0
2022-10-05T03:00:42.448Z,0
2022-10-05T03:01:43.961Z,0
2022-10-05T03:02:44.095Z,0
2022-10-05T03:03:44.179Z,0
2022-10-05T03:04:45.364Z,0
2022-10-05T03:05:46.569Z,0
2022-10-05T03:06:47.621Z,0
2022-10-05T03:07:47.581Z,0
2022-10-05T03:08:47.498Z,0
2022-10-05T03:09:48.716Z,0
2022-10-05T03:10:48.551Z,0
2022-10-05T03:11:49.739Z,0
2022-10-05T03:12:50.245Z,0
2022-10-05T03:13:51.161Z,0
2022-10-05T03:14:50.477Z,0
2022-10-05T03:15:51.330Z,0
2022-10-05T03:16:52.265Z,0
2022-10-05T03:17:52.268Z,0
2022-10-05T03:18:52.531Z,0
2022-10-05T03:19:52.712Z,0
2022-10-05T03:20:52.622Z,0
2022-10-05T03:21:53.237Z,0
2022-10-05T03:22:54.159Z,0
2022-10-05T03:23:54.792Z,0
2022-10-05T03:24:55.424Z,0
2022-10-05T03:25:56.669Z,0
2022-10-05T03:26:56.392Z,0
2022-10-05T03:27:57.436Z,0
2022-10-05T03:28:57.373Z,0
2022-10-05T03:29:58.279Z,0
2022-10-05T03:30:58.883Z,0
2022-10-05T03:31:59.565Z,0
2022-10-05T03:33:01.063Z,0
2022-10-05T03:34:00.813Z,0
2022-10-05T03:35:02.033Z,0
2022-10-05T03:36:02.943Z,0
2022-10-05T03:37:03.153Z,0
2022-10-05T03:38:03.412Z,0
2022-10-05T03:39:03.899Z,0
2022-10-05T03:40:04.826Z,0
2022-10-05T03:41:04.735Z,0
2022-10-05T03:42:04.925Z,0
2022-10-05T03:43:05.852Z,0
2022-10-05T03:44:05.766Z,0
2022-10-05T03:45:06.699Z,0
2022-10-05T03:46:07.832Z,0
2022-10-05T03:47:08.138Z,0
2022-10-05T03:48:12.735Z,0
2022-10-05T03:49:10.259Z,0
2022-10-05T03:50:09.885Z,0
2022-10-05T03:51:10.476Z,0
2022-10-05T03:52:11.086Z,0
2022-10-05T03:53:11.708Z,0
2022-10-05T03:54:11.318Z,0
2022-10-05T03:55:12.527Z,0
2022-10-05T03:56:14.588Z,0
2022-10-05T03:57:14.205Z,0
2022-10-05T03:58:14.919Z,0
2022-10-05T03:59:16.115Z,0
2022-10-05T04:00:16.146Z,0
2022-10-05T04:01:17.327Z,0
2022-10-05T04:02:17.228Z,0
2022-10-05T04:03:18.223Z,0
2022-10-05T04:04:18.484Z,0
2022-10-05T04:05:18.685Z,0
2022-10-05T04:06:19.583Z,0
2022-10-05T04:07:20.497Z,0
2022-10-05T04:08:20.805Z,0
2022-10-05T04:09:21.736Z,0
2022-10-05T04:10:21.666Z,0
2022-10-05T04:11:22.577Z,0
2022-10-05T04:12:22.493Z,0
2022-10-05T04:13:23.984Z,0
2022-10-05T04:14:23.595Z,0
2022-10-05T04:15:29.536Z,0
2022-10-05T04:16:25.665Z,0
2022-10-05T04:17:26.335Z,0
2022-10-05T04:18:26.763Z,0
2022-10-05T04:19:27.125Z,0
2022-10-05T04:20:28.006Z,0
2022-10-05T04:21:34.634Z,0
2022-10-05T04:22:29.543Z,0
2022-10-05T04:23:30.453Z,0
2022-10-05T04:24:31.065Z,0
2022-10-05T04:25:32.564Z,0
2022-10-05T04:26:32.184Z,0
2022-10-05T04:27:33.370Z,0
2022-10-05T04:28:38.156Z,0
2022-10-05T04:29:34.218Z,0
2022-10-05T04:30:34.834Z,0
2022-10-05T04:31:35.735Z,0
2022-10-05T04:32:36.455Z,0
2022-10-05T04:33:37.395Z,0
2022-10-05T04:34:37.303Z,0
2022-10-05T04:35:38.496Z,0
2022-10-05T04:36:38.829Z,0
2022-10-05T04:37:43.177Z,0
2022-10-05T04:38:40.551Z,0
2022-10-05T04:39:41.187Z,0
2022-10-05T04:40:41.894Z,0
2022-10-05T04:41:42.806Z,0
2022-10-05T04:42:43.714Z,0
2022-10-05T04:43:44.688Z,0
2022-10-05T04:44:45.601Z,0
2022-10-05T04:45:45.813Z,0
2022-10-05T04:46:47.370Z,0
2022-10-05T04:47:46.916Z,0
2022-10-05T04:48:47.648Z,0
2022-10-05T04:49:48.010Z,0
2022-10-05T04:50:49.191Z,0
2022-10-05T04:51:56.413Z,0
2022-10-05T04:52:50.598Z,0
2022-10-05T04:53:51.196Z,0
2022-10-05T04:54:52.087Z,0
2022-10-05T04:55:52.588Z,0
2022-10-05T04:56:54.049Z,0
2022-10-05T04:57:53.639Z,0
2022-10-05T04:58:55.205Z,4
2022-10-05T04:59:54.793Z,4
2022-10-05T05:00:56.331Z,0
2022-10-05T05:01:56.647Z,0
2022-10-05T05:02:56.559Z,4
2022-10-05T05:03:58.329Z,0
2022-10-05T05:05:02.987Z,4
2022-10-05T05:06:24.244Z,4
2022-10-05T05:06:59.945Z,8
2022-10-05T05:08:00.559Z,4
2022-10-05T05:09:01.162Z,8
2022-10-05T05:10:00.772Z,4
2022-10-05T05:11:02.276Z,8
2022-10-05T05:12:02.709Z,8
2022-10-05T05:13:03.329Z,8
2022-10-05T05:14:03.252Z,8
2022-10-05T05:15:04.166Z,12
2022-10-05T05:16:05.585Z,16
2022-10-05T05:17:08.527Z,16
2022-10-05T05:18:05.529Z,20
2022-10-05T05:19:06.241Z,20
2022-10-05T05:20:07.183Z,20
2022-10-05T05:21:07.677Z,24
2022-10-05T05:22:07.317Z,28
2022-10-05T05:23:08.507Z,32
2022-10-05T05:24:09.133Z,32
2022-10-05T05:25:09.174Z,36
2022-10-05T05:26:11.097Z,40
2022-10-05T05:27:11.738Z,44
2022-10-05T05:28:12.029Z,48
2022-10-05T05:29:12.939Z,48
2022-10-05T05:30:13.849Z,52
2022-10-05T05:31:14.011Z,52
2022-10-05T05:32:14.831Z,60
2022-10-05T05:33:15.025Z,64
2022-10-05T05:34:15.988Z,68
2022-10-05T05:35:16.222Z,68
2022-10-05T05:36:19.545Z,72
2022-10-05T05:37:17.393Z,76
2022-10-05T05:38:18.009Z,76
2022-10-05T05:39:19.295Z,84
2022-10-05T05:40:19.519Z,84
2022-10-05T05:41:20.448Z,88
2022-10-05T05:42:20.912Z,96
2022-10-05T05:43:21.530Z,100
2022-10-05T05:44:22.163Z,104
2022-10-05T05:45:23.069Z,108
2022-10-05T05:46:34.133Z,112
2022-10-05T05:47:25.711Z,116
2022-10-05T05:48:26.336Z,120
2022-10-05T05:49:26.111Z,120
2022-10-05T05:50:27.329Z,128
2022-10-05T05:51:27.245Z,132
2022-10-05T05:52:28.437Z,132
2022-10-05T05:53:28.624Z,140
2022-10-05T05:54:28.818Z,156
2022-10-05T05:55:35.883Z,148
2022-10-05T05:56:30.241Z,144
2022-10-05T05:57:31.441Z,144
2022-10-05T05:58:31.927Z,148
2022-10-05T05:59:32.228Z,148
2022-10-05T06:00:31.869Z,152
2022-10-05T06:01:50.340Z,160
2022-10-05T06:02:34.183Z,164
2022-10-05T06:03:34.879Z,164
2022-10-05T06:04:35.075Z,164
2022-10-05T06:05:35.585Z,168
2022-10-05T06:06:35.863Z,168
2022-10-05T06:07:41.490Z,172
2022-10-05T06:08:37.005Z,176
2022-10-05T06:09:37.605Z,184
2022-10-05T06:10:37.531Z,184
2022-10-05T06:11:38.760Z,184
2022-10-05T06:12:38.955Z,192
2022-10-05T06:13:38.592Z,216
2022-10-05T06:14:39.514Z,248
2022-10-05T06:15:40.727Z,232
2022-10-05T06:16:41.372Z,220
2022-10-05T06:17:41.599Z,276
2022-10-05T06:18:42.092Z,320
2022-10-05T06:19:42.700Z,288
2022-10-05T06:20:43.387Z,224
2022-10-05T06:21:43.295Z,216
2022-10-05T06:22:43.923Z,204
2022-10-05T06:23:44.828Z,204
2022-10-05T06:24:46.016Z,204
2022-10-05T06:25:46.507Z,224
2022-10-05T06:26:46.757Z,220
2022-10-05T06:27:46.561Z,216
2022-10-05T06:28:47.732Z,216
2022-10-05T06:29:48.049Z,220
2022-10-05T06:30:48.275Z,232
2022-10-05T06:31:49.879Z,240
2022-10-05T06:32:49.461Z,244
2022-10-05T06:33:50.107Z,244
2022-10-05T06:34:50.448Z,240
2022-10-05T06:35:50.799Z,244
2022-10-05T06:36:52.699Z,240
2022-10-05T06:37:52.295Z,244
2022-10-05T06:38:52.910Z,248
2022-10-05T06:39:57.554Z,260
2022-10-05T06:40:55.256Z,272
2022-10-05T06:41:55.639Z,304
2022-10-05T06:42:55.559Z,320
2022-10-05T06:43:56.208Z,332
2022-10-05T06:44:57.598Z,364
2022-10-05T06:45:58.350Z,380
2022-10-05T06:46:58.701Z,396
2022-10-05T06:48:02.952Z,372
2022-10-05T06:48:58.911Z,508
2022-10-05T06:50:00.571Z,1064
2022-10-05T06:51:00.538Z,2844
2022-10-05T06:52:00.740Z,3248
2022-10-05T06:53:01.087Z,3368
2022-10-05T06:54:02.296Z,3040
2022-10-05T06:55:03.260Z,2736
2022-10-05T06:56:03.238Z,2688
2022-10-05T06:57:04.742Z,3044
2022-10-05T06:58:04.661Z,3048
2022-10-05T06:59:04.566Z,3072
2022-10-05T07:00:05.626Z,3240
2022-10-05T07:01:05.870Z,3032
2022-10-05T07:02:06.499Z,2684
2022-10-05T07:03:06.488Z,2516
2022-10-05T07:04:07.417Z,1940
2022-10-05T07:05:07.931Z,1860
2022-10-05T07:06:08.575Z,1720
2022-10-05T07:07:09.067Z,1556
2022-10-05T07:08:09.280Z,1464
2022-10-05T07:09:09.910Z,1460
2022-10-05T07:10:10.791Z,1436
2022-10-05T07:11:11.996Z,1156
2022-10-05T07:12:16.492Z,1172
2022-10-05T07:13:12.412Z,1564
2022-10-05T07:14:13.311Z,1596
2022-10-05T07:15:14.264Z,1480
2022-10-05T07:16:15.471Z,1388
2022-10-05T07:17:16.200Z,1396
2022-10-05T07:18:16.510Z,1340
2022-10-05T07:19:17.007Z,1192
2022-10-05T07:20:17.192Z,1192
2022-10-05T07:21:18.157Z,1240
2022-10-05T07:22:17.781Z,1276
2022-10-05T07:23:18.984Z,1484
2022-10-05T07:24:20.205Z,1628
2022-10-05T07:25:20.396Z,1988
2022-10-05T07:26:20.610Z,2184
2022-10-05T07:27:21.826Z,1396
2022-10-05T07:28:22.364Z,2420
2022-10-05T07:29:22.395Z,2608
2022-10-05T07:30:22.730Z,3064
2022-10-05T07:31:23.644Z,2812
2022-10-05T07:32:24.591Z,1580
2022-10-05T07:33:25.088Z,1856
2022-10-05T07:34:26.008Z,1540
2022-10-05T07:35:26.000Z,1276
2022-10-05T07:36:25.955Z,1112
2022-10-05T07:37:27.451Z,972
2022-10-05T07:38:28.362Z,960
2022-10-05T07:40:01.775Z,952
2022-10-05T07:40:50.107Z,912
2022-10-05T07:41:50.308Z,908
2022-10-05T07:43:00.051Z,876
2022-10-05T07:44:18.662Z,880
2022-10-05T07:44:51.578Z,888
2022-10-05T07:45:53.391Z,864
2022-10-05T07:46:54.642Z,884
2022-10-05T07:47:53.883Z,888
2022-10-05T07:48:54.079Z,932
2022-10-05T07:49:55.003Z,848
2022-10-05T07:50:55.375Z,880
2022-10-05T07:51:55.226Z,860
2022-10-05T07:52:55.750Z,812
2022-10-05T07:53:55.437Z,740
2022-10-05T07:54:56.658Z,768
2022-10-05T07:55:56.874Z,868
2022-10-05T07:56:57.896Z,816
2022-10-05T07:57:58.142Z,736
2022-10-05T07:58:58.373Z,744
2022-10-05T07:59:58.577Z,776
2022-10-05T08:00:59.172Z,808
2022-10-05T08:01:59.810Z,788
2022-10-05T08:03:00.418Z,804
2022-10-05T08:04:00.100Z,796
2022-10-05T08:05:00.468Z,812
2022-10-05T08:06:01.397Z,896
2022-10-05T08:07:02.291Z,1032
2022-10-05T08:08:02.884Z,816
2022-10-05T08:09:02.256Z,804
2022-10-05T08:10:02.627Z,804
2022-10-05T08:11:03.655Z,792
2022-10-05T08:12:04.579Z,784
2022-10-05T08:13:05.224Z,784
2022-10-05T08:14:05.420Z,752
2022-10-05T08:15:06.048Z,732
2022-10-05T08:16:07.284Z,744
2022-10-05T08:17:07.668Z,712
2022-10-05T08:18:07.686Z,692
2022-10-05T08:19:08.317Z,688
2022-10-05T08:20:09.758Z,680
2022-10-05T08:21:10.083Z,700
2022-10-05T08:22:10.016Z,712
2022-10-05T08:23:11.227Z,712
2022-10-05T08:24:10.869Z,704
2022-10-05T08:25:11.791Z,700
2022-10-05T08:26:12.805Z,692
2022-10-05T08:27:13.732Z,688
2022-10-05T08:28:14.457Z,688
2022-10-05T08:29:19.366Z,688
2022-10-05T08:30:14.565Z,696
2022-10-05T08:31:15.451Z,700
2022-10-05T08:32:15.281Z,716
2022-10-05T08:33:15.775Z,732
2022-10-05T08:34:15.230Z,968
2022-10-05T08:35:16.135Z,1660
2022-10-05T08:36:17.367Z,1636
2022-10-05T08:37:17.605Z,1444
2022-10-05T08:38:17.233Z,1584
2022-10-05T08:39:17.842Z,1460
2022-10-05T08:40:18.617Z,1312
2022-10-05T08:41:19.650Z,1020
2022-10-05T08:42:19.856Z,984
2022-10-05T08:43:19.773Z,1020
2022-10-05T08:44:20.267Z,992
2022-10-05T08:45:20.210Z,964
2022-10-05T08:46:21.771Z,940
2022-10-05T08:47:21.513Z,908
2022-10-05T08:48:22.478Z,924
2022-10-05T08:49:23.122Z,892
2022-10-05T08:50:23.734Z,856
2022-10-05T08:51:23.812Z,816
2022-10-05T08:52:24.817Z,820
2022-10-05T08:53:25.070Z,792
2022-10-05T08:54:26.010Z,764
2022-10-05T08:55:26.348Z,740
2022-10-05T08:56:34.695Z,724
2022-10-05T08:57:27.592Z,688
2022-10-05T08:58:28.267Z,676
2022-10-05T08:59:29.212Z,672
2022-10-05T09:00:29.715Z,660
2022-10-05T09:01:30.125Z,664
2022-10-05T09:02:30.623Z,668
2022-10-05T09:03:34.393Z,680
2022-10-05T09:04:30.767Z,692
2022-10-05T09:05:31.708Z,700
2022-10-05T09:06:32.961Z,704
2022-10-05T09:07:35.405Z,716
2022-10-05T09:08:33.902Z,716
2022-10-05T09:09:34.116Z,712
2022-10-05T09:10:34.317Z,720
2022-10-05T09:11:34.388Z,728
2022-10-05T09:12:35.314Z,752
2022-10-05T09:13:36.230Z,772
2022-10-05T09:14:36.830Z,784
2022-10-05T09:15:37.887Z,792
2022-10-05T09:16:39.229Z,812
2022-10-05T09:17:45.042Z,852
2022-10-05T09:18:40.231Z,888
2022-10-05T09:19:40.436Z,916
2022-10-05T09:20:40.934Z,940
2022-10-05T09:21:41.238Z,940
2022-10-05T09:22:41.161Z,948
2022-10-05T09:23:42.395Z,944
2022-10-05T09:24:47.678Z,924
2022-10-05T09:25:43.302Z,928
2022-10-05T09:26:43.265Z,928
2022-10-05T09:27:44.348Z,936
2022-10-05T09:28:44.734Z,936
2022-10-05T09:29:45.703Z,940
2022-10-05T09:30:46.410Z,956
2022-10-05T09:31:46.446Z,988
2022-10-05T09:32:45.960Z,1012
2022-10-05T09:33:46.334Z,1028
2022-10-05T09:34:47.274Z,1048
2022-10-05T09:35:47.945Z,1096
2022-10-05T09:36:48.585Z,1164
2022-10-05T09:37:49.750Z,1180
2022-10-05T09:38:49.704Z,1164
2022-10-05T09:39:51.205Z,1168
2022-10-05T09:40:51.345Z,1224
2022-10-05T09:41:52.778Z,1460
2022-10-05T09:42:52.983Z,1648
2022-10-05T09:43:53.461Z,2272
2022-10-05T09:44:53.429Z,2580
2022-10-05T09:45:54.400Z,2556
2022-10-05T09:46:54.768Z,2304
2022-10-05T09:47:56.062Z,2924
2022-10-05T09:48:55.983Z,3436
2022-10-05T09:49:57.738Z,2504
2022-10-05T09:50:58.061Z,2416
2022-10-05T09:51:58.616Z,2544
2022-10-05T09:52:58.576Z,3084
2022-10-05T09:53:58.861Z,4436
2022-10-05T09:54:59.792Z,7100
2022-10-05T09:56:00.298Z,6708
2022-10-05T09:57:00.718Z,8536
2022-10-05T09:58:04.304Z,8168
2022-10-05T09:59:01.540Z,8856
2022-10-05T10:00:02.639Z,9128
2022-10-05T10:01:39.041Z,9488
2022-10-05T10:02:28.971Z,9544
2022-10-05T10:03:28.488Z,10472
2022-10-05T10:04:28.957Z,10716
2022-10-05T10:05:28.941Z,10392
2022-10-05T10:06:29.860Z,10400
2022-10-05T10:07:30.419Z,9300
2022-10-05T10:08:30.747Z,8312
2022-10-05T10:09:32.220Z,7516
2022-10-05T10:10:31.376Z,7416
2022-10-05T10:11:31.879Z,7496
2022-10-05T10:12:32.233Z,7608
2022-10-05T10:13:32.446Z,7844
2022-10-05T10:14:33.388Z,7412
2022-10-05T10:15:33.405Z,7968
2022-10-05T10:16:34.589Z,7520
2022-10-05T10:17:35.096Z,8144
2022-10-05T10:18:34.735Z,7920
2022-10-05T10:19:35.949Z,9204
2022-10-05T10:20:36.594Z,9868
2022-10-05T10:21:37.505Z,9572
2022-10-05T10:22:42.251Z,9740
2022-10-05T10:23:38.876Z,9888
2022-10-05T10:24:39.214Z,9304
2022-10-05T10:25:40.445Z,7152
2022-10-05T10:26:40.960Z,8524
2022-10-05T10:27:41.223Z,8680
2022-10-05T10:28:41.943Z,8168
2022-10-05T10:29:42.486Z,8224
2022-10-05T10:30:46.811Z,7392
2022-10-05T10:31:42.909Z,7308
2022-10-05T10:32:43.746Z,8016
2022-10-05T10:33:43.682Z,7948
2022-10-05T10:34:44.895Z,8124
2022-10-05T10:35:44.821Z,7036
2022-10-05T10:36:46.278Z,5716
2022-10-05T10:37:46.604Z,5384
2022-10-05T10:38:47.606Z,4300
2022-10-05T10:39:47.519Z,4124
2022-10-05T10:40:48.436Z,4124
2022-10-05T10:41:49.683Z,3964
2022-10-05T10:42:49.730Z,4020
2022-10-05T10:43:50.240Z,4404
2022-10-05T10:44:50.767Z,3144
2022-10-05T10:45:50.699Z,3076
2022-10-05T10:46:51.601Z,3052
2022-10-05T10:47:51.229Z,3012
2022-10-05T10:48:51.435Z,3128
2022-10-05T10:49:51.784Z,3440
2022-10-05T10:50:52.414Z,3472
2022-10-05T10:51:52.623Z,3492
2022-10-05T10:52:52.964Z,3456
2022-10-05T10:53:53.206Z,4024
2022-10-05T10:54:53.133Z,4256
2022-10-05T10:55:54.337Z,4088
2022-10-05T10:56:56.338Z,4172
2022-10-05T10:57:55.564Z,4232
2022-10-05T10:58:56.515Z,3940
2022-10-05T10:59:57.463Z,3932
2022-10-05T11:00:57.096Z,4148
2022-10-05T11:01:59.238Z,4936
2022-10-05T11:02:58.942Z,5188
2022-10-05T11:03:59.769Z,4608
2022-10-05T11:05:00.090Z,4572
2022-10-05T11:06:01.906Z,4764
2022-10-05T11:07:01.841Z,5000
2022-10-05T11:08:02.769Z,4356
2022-10-05T11:09:03.003Z,4444
2022-10-05T11:10:02.964Z,4496
2022-10-05T11:11:03.972Z,3512
2022-10-05T11:12:03.894Z,2980
2022-10-05T11:13:04.967Z,3196
2022-10-05T11:14:05.468Z,4160
2022-10-05T11:15:06.131Z,4180
2022-10-05T11:17:08.033Z,3932
2022-10-05T11:18:09.165Z,2904
2022-10-05T11:19:09.084Z,2292
2022-10-05T11:20:15.565Z,2372
2022-10-05T11:21:10.243Z,2732
2022-10-05T11:22:11.448Z,3104
2022-10-05T11:23:12.490Z,3440
2022-10-05T11:24:13.445Z,3700
2022-10-05T11:25:13.689Z,3212
2022-10-05T11:26:14.914Z,2400
2022-10-05T11:27:14.795Z,2600
2022-10-05T11:28:15.376Z,3392
2022-10-05T11:29:15.448Z,3944
2022-10-05T11:30:16.271Z,3740
2022-10-05T11:31:16.708Z,3156
2022-10-05T11:32:17.083Z,3328
2022-10-05T11:33:17.757Z,3628
2022-10-05T11:34:17.960Z,3180
2022-10-05T11:35:18.468Z,2760
2022-10-05T11:36:18.673Z,2580
2022-10-05T11:37:19.595Z,2432
2022-10-05T11:38:20.896Z,2280
2022-10-05T11:39:21.887Z,2440
2022-10-05T11:40:21.809Z,2268
2022-10-05T11:41:22.443Z,2080
2022-10-05T11:42:22.668Z,2112
2022-10-05T11:43:24.014Z,2148
2022-10-05T11:44:24.244Z,2224
2022-10-05T11:45:25.185Z,2500
2022-10-05T11:46:25.985Z,2572
2022-10-05T11:47:26.336Z,2328
2022-10-05T11:48:26.588Z,2000
2022-10-05T11:49:27.529Z,1932
2022-10-05T11:50:28.041Z,2012
2022-10-05T11:51:34.630Z,1920
2022-10-05T11:52:28.257Z,1916
2022-10-05T11:53:29.323Z,1832
2022-10-05T11:54:32.484Z,1824
2022-10-05T11:55:30.414Z,1840
2022-10-05T11:57:31.068Z,1876
2022-10-05T11:58:31.996Z,1824
2022-10-05T11:59:32.925Z,1880
2022-10-05T12:00:33.160Z,1988
2022-10-05T12:01:33.093Z,2176
2022-10-05T12:02:34.274Z,2208
2022-10-05T12:03:35.295Z,2304
2022-10-05T12:04:35.186Z,2172
2022-10-05T12:05:35.495Z,2144
2022-10-05T12:06:35.448Z,2192
2022-10-05T12:07:36.677Z,2268
2022-10-05T12:08:36.621Z,2632
2022-10-05T12:09:36.861Z,2992
2022-10-05T12:10:37.874Z,3568
2022-10-05T12:11:38.793Z,4340
2022-10-05T12:12:39.163Z,4516
2022-10-05T12:13:40.802Z,4216
2022-10-05T12:14:41.478Z,3988
2022-10-05T12:15:42.162Z,4016
2022-10-05T12:16:42.777Z,3976
2022-10-05T12:17:42.690Z,4200
2022-10-05T12:18:42.989Z,4764
2022-10-05T12:19:44.207Z,5296
2022-10-05T12:20:43.815Z,4864
2022-10-05T12:21:45.038Z,5080
2022-10-05T12:22:45.411Z,4960
2022-10-05T12:23:46.288Z,5132
2022-10-05T12:24:46.552Z,5644
2022-10-05T12:25:46.767Z,5916
2022-10-05T12:26:46.431Z,5448
2022-10-05T12:27:47.347Z,5272
2022-10-05T12:28:47.308Z,5036
2022-10-05T12:29:47.364Z,4908
2022-10-05T12:30:48.749Z,4708
2022-10-05T12:31:50.427Z,4684
2022-10-05T12:32:50.660Z,4548
2022-10-05T12:33:51.715Z,4936
2022-10-05T12:34:52.685Z,4728
2022-10-05T12:35:59.856Z,4772
2022-10-05T12:37:13.671Z,4688
2022-10-05T12:37:53.913Z,4636
2022-10-05T12:38:54.576Z,3904
2022-10-05T12:39:55.271Z,3180
2022-10-05T12:40:55.915Z,3500
2022-10-05T12:41:56.907Z,3628
2022-10-05T12:42:57.413Z,3548
2022-10-05T12:43:57.145Z,3692
2022-10-05T12:44:58.066Z,3772
2022-10-05T12:45:58.729Z,3500
2022-10-05T12:46:59.077Z,4120
2022-10-05T12:48:04.879Z,4164
2022-10-05T12:49:00.108Z,4640
2022-10-05T12:50:01.107Z,4560
2022-10-05T12:51:00.807Z,4360
2022-10-05T12:52:02.315Z,4592
2022-10-05T12:53:02.554Z,4868
2022-10-05T12:54:02.388Z,5004
2022-10-05T12:55:02.799Z,5244
2022-10-05T12:56:04.574Z,5076
2022-10-05T12:57:04.504Z,4852
2022-10-05T12:58:04.740Z,4900
2022-10-05T12:59:04.214Z,5076
2022-10-05T13:00:05.209Z,5520
2022-10-05T13:01:06.546Z,5408
2022-10-05T13:02:07.703Z,5280
2022-10-05T13:03:08.289Z,5544
2022-10-05T13:04:08.311Z,5524
2022-10-05T13:05:08.522Z,5704
2022-10-05T13:06:14.552Z,5792
2022-10-05T13:07:10.193Z,6084
2022-10-05T13:08:10.422Z,5832
2022-10-05T13:09:11.339Z,5740
2022-10-05T13:10:12.383Z,5536
2022-10-05T13:11:20.715Z,5568
2022-10-05T13:12:13.632Z,5492
2022-10-05T13:13:13.557Z,5688
2022-10-05T13:14:13.974Z,6228
2022-10-05T13:15:15.482Z,6420
2022-10-05T13:16:17.541Z,6128
2022-10-05T13:17:16.460Z,6184
2022-10-05T13:18:18.177Z,6400
2022-10-05T13:19:17.223Z,6440
2022-10-05T13:20:17.604Z,6592
2022-10-05T13:21:17.830Z,6660
2022-10-05T13:22:18.333Z,6364
2022-10-05T13:23:18.556Z,5916
2022-10-05T13:24:18.817Z,4372
2022-10-05T13:25:18.472Z,3388
2022-10-05T13:26:21.469Z,2952
2022-10-05T13:27:20.457Z,5912
2022-10-05T13:28:21.150Z,6564
2022-10-05T13:29:20.857Z,6564
2022-10-05T13:30:22.089Z,6156
2022-10-05T13:31:22.584Z,5580
2022-10-05T13:32:22.399Z,5032
2022-10-05T13:33:23.626Z,5352
2022-10-05T13:34:23.930Z,5536
2022-10-05T13:35:24.132Z,5512
2022-10-05T13:36:25.147Z,5416
2022-10-05T13:37:25.655Z,4992
2022-10-05T13:38:25.606Z,4260
2022-10-05T13:39:26.163Z,4552
2022-10-05T13:40:26.436Z,4412
2022-10-05T13:41:26.063Z,4240
2022-10-05T13:42:27.007Z,3920
2022-10-05T13:43:28.398Z,3732
2022-10-05T13:44:28.790Z,3392
2022-10-05T13:45:30.292Z,3304
2022-10-05T13:46:31.083Z,3100
2022-10-05T13:47:30.823Z,2372
2022-10-05T13:48:31.476Z,2232
2022-10-05T13:49:32.774Z,2800
2022-10-05T13:50:39.180Z,3044
2022-10-05T13:51:32.802Z,3172
2022-10-05T13:52:33.730Z,3368
2022-10-05T13:53:34.362Z,3524
2022-10-05T13:54:35.402Z,3560
2022-10-05T13:55:35.361Z,3324
2022-10-05T13:56:35.986Z,3428
2022-10-05T13:57:37.501Z,3640
2022-10-05T13:58:38.615Z,3372
2022-10-05T13:59:38.842Z,3516
2022-10-05T14:00:39.054Z,3356
2022-10-05T14:01:40.292Z,3096
2022-10-05T14:02:40.635Z,3080
2022-10-05T14:03:41.235Z,2916
2022-10-05T14:04:41.577Z,2740
2022-10-05T14:05:43.645Z,2328
2022-10-05T14:06:42.669Z,1984
2022-10-05T14:07:42.623Z,1844
2022-10-05T14:08:42.545Z,1816